Time;durP1;ratioP1;P1;durP2;ratioP2;P2;SDS_P1;SDS_P2;PMS_P1;PMS_P2;Temp;Humidity;BMP_temperature;BMP_pressure;BME280_temperature;BME280_humidity;BME280_pressure;Samples;Min_cycle;Max_cycle;Signal;HPM_P1;HPM_P2
2023/10/09 00:02:11;;;;;;;1.08;0.77;;;;;;;;;;4985573;28;20178;-61
2023/10/09 00:04:41;;;;;;;0.75;0.73;;;;;;;;;;4985244;28;20885;-61
2023/10/09 00:07:08;;;;;;;1.73;1.23;;;;;;;;;;4984799;28;20043;-61
2023/10/09 00:09:46;;;;;;;3.20;1.67;;;;;;;;;;4985744;28;20042;-61
2023/10/09 00:12:12;;;;;;;1.60;1.40;;;;;;;;;;4984227;28;20042;-61
2023/10/09 00:14:40;;;;;;;1.92;1.50;;;;;;;;;;4985442;28;20042;-61
2023/10/09 00:19:38;;;;;;;1.70;1.27;;;;;;;;;;4984967;28;20046;-61
2023/10/09 00:22:05;;;;;;;1.98;1.40;;;;;;;;;;4984890;28;20038;-61
2023/10/09 00:24:34;;;;;;;1.27;1.17;;;;;;;;;;4984864;28;20046;-61
2023/10/09 00:27:12;;;;;;;3.28;1.27;;;;;;;;;;4982192;28;20099;-61
2023/10/09 00:29:44;;;;;;;1.10;1.00;;;;;;;;;;4985309;28;20121;-61
2023/10/09 00:32:21;;;;;;;0.95;0.95;;;;;;;;;;4984717;28;20492;-61
2023/10/09 00:34:50;;;;;;;1.30;1.10;;;;;;;;;;4984669;28;20058;-61
2023/10/09 00:37:16;;;;;;;1.77;1.52;;;;;;;;;;4985252;28;20046;-61
2023/10/09 00:39:48;;;;;;;1.70;1.60;;;;;;;;;;4984657;28;20578;-61
2023/10/09 00:42:15;;;;;;;1.33;1.23;;;;;;;;;;4985215;28;20042;-61
2023/10/09 00:44:42;;;;;;;2.20;1.35;;;;;;;;;;4985309;28;20112;-61
2023/10/09 00:47:20;;;;;;;1.58;1.48;;;;;;;;;;4984251;28;20137;-61
2023/10/09 00:49:47;;;;;;;1.55;1.20;;;;;;;;;;4985547;28;20057;-61
2023/10/09 00:52:22;;;;;;;1.83;1.67;;;;;;;;;;4967814;28;20058;-61
2023/10/09 00:54:51;;;;;;;1.75;1.50;;;;;;;;;;4983998;28;20089;-61
2023/10/09 00:57:24;;;;;;;1.27;1.17;;;;;;;;;;4985063;28;20048;-61
2023/10/09 00:59:59;;;;;;;2.10;1.40;;;;;;;;;;4983212;28;20046;-61
2023/10/09 01:02:35;;;;;;;1.58;1.33;;;;;;;;;;4965652;28;20038;-61
2023/10/09 01:05:11;;;;;;;2.13;1.70;;;;;;;;;;4985388;28;20058;-61
2023/10/09 01:07:40;;;;;;;1.70;1.25;;;;;;;;;;4983038;28;20160;-62
2023/10/09 01:10:09;;;;;;;2.63;1.10;;;;;;;;;;4984812;28;20050;-61
2023/10/09 01:12:42;;;;;;;2.00;1.20;;;;;;;;;;4985637;28;20525;-61
2023/10/09 01:15:08;;;;;;;1.90;1.52;;;;;;;;;;4982227;28;20047;-61
2023/10/09 01:17:45;;;;;;;1.90;1.52;;;;;;;;;;4985434;28;20042;-61
2023/10/09 01:20:16;;;;;;;1.98;1.77;;;;;;;;;;4983427;28;20069;-61
2023/10/09 01:22:43;;;;;;;2.40;2.08;;;;;;;;;;4986113;28;20039;-61
2023/10/09 01:25:10;;;;;;;1.50;1.40;;;;;;;;;;4987738;28;20078;-61
2023/10/09 01:27:40;;;;;;;3.28;2.13;;;;;;;;;;4988779;28;20054;-61
2023/10/09 01:30:06;;;;;;;2.47;1.95;;;;;;;;;;4987415;28;20077;-61
2023/10/09 01:32:34;;;;;;;2.15;1.90;;;;;;;;;;4988567;28;20055;-61
2023/10/09 01:35:00;;;;;;;3.33;2.55;;;;;;;;;;4970440;28;20053;-61
2023/10/09 01:37:28;;;;;;;2.67;2.40;;;;;;;;;;4987933;28;20038;-61
2023/10/09 01:40:00;;;;;;;2.28;1.95;;;;;;;;;;4984546;28;20038;-61
2023/10/09 01:42:44;;;;;;;3.13;2.28;;;;;;;;;;4988246;28;20049;-62
2023/10/09 01:45:41;;;;;;;4.00;2.78;;;;;;;;;;4985752;28;20046;-61
2023/10/09 01:47:57;;;;;;;4.63;3.13;;;;;;;;;;4984817;28;20059;-61
2023/10/09 01:50:27;;;;;;;4.18;2.97;;;;;;;;;;4987264;28;20488;-61
2023/10/09 01:52:53;;;;;;;3.85;2.90;;;;;;;;;;4988463;28;20053;-60
2023/10/09 01:58:05;;;;;;;3.38;2.33;;;;;;;;;;4987727;28;20039;-61
2023/10/09 02:00:35;;;;;;;3.00;2.40;;;;;;;;;;4986190;28;20038;-61
2023/10/09 02:03:05;;;;;;;2.22;2.00;;;;;;;;;;4988349;28;20050;-61
2023/10/09 02:05:35;;;;;;;3.13;2.58;;;;;;;;;;4987906;28;20046;-61
2023/10/09 02:08:04;;;;;;;3.70;2.47;;;;;;;;;;4988163;28;20093;-61
2023/10/09 02:12:59;;;;;;;4.18;2.50;;;;;;;;;;4987258;28;20049;-61
2023/10/09 02:26:08;;;;;;;3.10;2.47;;;;;;;;;;4986159;28;20042;-61
2023/10/09 02:28:34;;;;;;;3.60;2.75;;;;;;;;;;4987683;28;20045;-61
2023/10/09 02:31:09;;;;;;;2.78;2.50;;;;;;;;;;4987305;28;20058;-61
2023/10/09 02:33:36;;;;;;;2.65;2.45;;;;;;;;;;4986109;28;20056;-61
2023/10/09 02:36:05;;;;;;;2.33;1.83;;;;;;;;;;4987557;28;20053;-61
2023/10/09 02:38:35;;;;;;;1.75;1.63;;;;;;;;;;4987712;28;20042;-61
2023/10/09 02:41:20;;;;;;;2.28;2.08;;;;;;;;;;4986814;28;20054;-62
2023/10/09 02:43:47;;;;;;;4.93;2.53;;;;;;;;;;4987373;28;20109;-61
2023/10/09 02:46:20;;;;;;;3.33;3.03;;;;;;;;;;4986430;28;20053;-60
2023/10/09 02:48:52;;;;;;;4.95;3.65;;;;;;;;;;4985968;28;20053;-61
2023/10/09 02:51:48;;;;;;;5.18;3.78;;;;;;;;;;4985676;28;20170;-61
2023/10/09 02:54:18;;;;;;;4.40;4.00;;;;;;;;;;4985370;28;20113;-61
2023/10/09 02:56:56;;;;;;;3.47;3.17;;;;;;;;;;4987089;28;20594;-61
2023/10/09 02:59:23;;;;;;;5.40;4.35;;;;;;;;;;4985222;28;20042;-62
2023/10/09 03:01:49;;;;;;;5.82;4.72;;;;;;;;;;4985169;28;20042;-62
2023/10/09 03:04:15;;;;;;;7.60;5.82;;;;;;;;;;4983233;28;20045;-61
2023/10/09 03:06:51;;;;;;;7.85;6.95;;;;;;;;;;4986732;28;20049;-61
2023/10/09 03:09:18;;;;;;;6.07;5.28;;;;;;;;;;4985939;28;20160;-61
2023/10/09 03:11:48;;;;;;;5.22;4.60;;;;;;;;;;4986613;28;20049;-61
2023/10/09 03:14:20;;;;;;;5.70;5.07;;;;;;;;;;4984250;28;20049;-61
2023/10/09 03:16:48;;;;;;;6.82;5.97;;;;;;;;;;4986643;28;20047;-61
2023/10/09 03:19:14;;;;;;;7.03;6.32;;;;;;;;;;4986213;28;20092;-61
2023/10/09 03:21:40;;;;;;;10.52;7.80;;;;;;;;;;4986032;28;20038;-61
2023/10/09 03:24:08;;;;;;;10.15;8.07;;;;;;;;;;4986371;28;20464;-61
2023/10/09 03:26:34;;;;;;;13.13;10.07;;;;;;;;;;4986651;28;20089;-61
2023/10/09 03:29:01;;;;;;;14.60;10.55;;;;;;;;;;4986180;28;20042;-61
2023/10/09 03:31:33;;;;;;;12.70;9.40;;;;;;;;;;4986055;28;20051;-61
2023/10/09 03:33:59;;;;;;;;;;;;;;;;;;4984015;28;20050;-61
2023/10/09 03:36:29;;;;;;;9.07;6.80;;;;;;;;;;4985083;28;20917;-61
2023/10/09 03:38:57;;;;;;;6.43;5.72;;;;;;;;;;4984178;28;20046;-61
2023/10/09 03:41:26;;;;;;;7.28;5.35;;;;;;;;;;4985649;28;20534;-61
2023/10/09 03:43:52;;;;;;;6.05;5.45;;;;;;;;;;4985432;28;20164;-61
2023/10/09 03:46:22;;;;;;;6.15;5.55;;;;;;;;;;4985853;28;20057;-61
2023/10/09 03:48:52;;;;;;;6.35;5.60;;;;;;;;;;4985923;28;20104;-61
2023/10/09 03:51:21;;;;;;;6.13;5.53;;;;;;;;;;4984940;28;20107;-61
2023/10/09 03:53:52;;;;;;;6.22;5.30;;;;;;;;;;4984724;28;20257;-61
2023/10/09 03:56:21;;;;;;;6.80;5.20;;;;;;;;;;4984045;28;20133;-61
2023/10/09 03:58:48;;;;;;;5.20;4.28;;;;;;;;;;4983710;28;20057;-61
2023/10/09 04:01:28;;;;;;;6.07;5.18;;;;;;;;;;4985559;28;20058;-61
2023/10/09 04:03:55;;;;;;;8.93;5.72;;;;;;;;;;4985176;28;20840;-61
2023/10/09 04:06:32;;;;;;;6.03;4.80;;;;;;;;;;4985586;28;20730;-61
2023/10/09 04:08:58;;;;;;;5.32;4.70;;;;;;;;;;4967161;28;20089;-61
2023/10/09 04:11:27;;;;;;;4.03;3.63;;;;;;;;;;4984747;28;20074;-61
2023/10/09 04:13:55;;;;;;;4.53;3.90;;;;;;;;;;4985899;28;20121;-61
2023/10/09 04:16:34;;;;;;;3.80;3.47;;;;;;;;;;4985656;28;20057;-61
2023/10/09 04:19:06;;;;;;;3.28;2.95;;;;;;;;;;4985052;28;20077;-61
2023/10/09 04:21:36;;;;;;;3.03;2.78;;;;;;;;;;4984668;28;20057;-61
2023/10/09 04:26:44;;;;;;;3.47;3.15;;;;;;;;;;4984385;28;20078;-61
2023/10/09 04:29:18;;;;;;;4.25;2.75;;;;;;;;;;4985087;28;20042;-61
2023/10/09 04:31:44;;;;;;;3.03;2.72;;;;;;;;;;4982594;28;20078;-62
2023/10/09 04:34:23;;;;;;;3.80;2.97;;;;;;;;;;4985020;28;20075;-62
2023/10/09 04:36:51;;;;;;;3.95;2.80;;;;;;;;;;4983233;28;20081;-61
2023/10/09 04:39:36;;;;;;;3.28;2.47;;;;;;;;;;4984524;28;20109;-61
2023/10/09 04:45:20;;;;;;;4.22;3.83;;;;;;;;;;4983249;28;20039;-61
2023/10/09 04:47:58;;;;;;;3.67;3.13;;;;;;;;;;4984593;28;20565;-62
2023/10/09 04:53:04;;;;;;;2.33;2.10;;;;;;;;;;4984237;28;20391;-62
2023/10/09 04:55:38;;;;;;;3.05;2.58;;;;;;;;;;4985221;28;20126;-61
2023/10/09 05:05:58;;;;;;;1.52;1.42;;;;;;;;;;4952561;28;20045;-61
2023/10/09 05:16:05;;;;;;;1.58;1.42;;;;;;;;;;4988765;28;20046;-61
2023/10/09 05:18:36;;;;;;;3.03;1.90;;;;;;;;;;4971744;28;20708;-61
2023/10/09 05:24:15;;;;;;;4.93;3.08;;;;;;;;;;4987981;28;20073;-62
2023/10/09 05:32:03;;;;;;;2.20;2.00;;;;;;;;;;4988263;28;20047;-61
2023/10/09 05:34:36;;;;;;;;;;;;;;;;;;4988144;28;20046;-61
2023/10/09 05:37:17;;;;;;;2.58;2.10;;;;;;;;;;4987276;28;19928;-61
2023/10/09 05:48:04;;;;;;;3.15;2.05;;;;;;;;;;4986893;28;20485;-61
2023/10/09 05:51:10;;;;;;;2.45;2.25;;;;;;;;;;4987615;28;20521;-61
2023/10/09 06:04:49;;;;;;;3.50;2.33;;;;;;;;;;4986652;28;20082;-61
2023/10/09 06:07:23;;;;;;;3.08;2.22;;;;;;;;;;4985970;28;20057;-61
2023/10/09 06:09:56;;;;;;;3.42;2.20;;;;;;;;;;4986194;28;20100;-61
2023/10/09 06:15:19;;;;;;;2.22;1.80;;;;;;;;;;4987730;28;20148;-62
2023/10/09 06:17:50;;;;;;;2.45;2.13;;;;;;;;;;4986295;28;20580;-62
2023/10/09 06:23:15;;;;;;;1.83;1.65;;;;;;;;;;4984833;28;20064;-62
2023/10/09 06:25:50;;;;;;;1.55;1.33;;;;;;;;;;4984891;28;20082;-62
2023/10/09 06:28:18;;;;;;;1.88;1.45;;;;;;;;;;4987105;28;20041;-61
2023/10/09 06:30:47;;;;;;;2.25;1.70;;;;;;;;;;4987347;28;20058;-61
2023/10/09 06:33:19;;;;;;;3.70;2.20;;;;;;;;;;4984666;28;20069;-61
2023/10/09 06:35:55;;;;;;;2.75;1.70;;;;;;;;;;4985930;28;20479;-61
2023/10/09 06:38:22;;;;;;;3.65;2.05;;;;;;;;;;4985311;28;20034;-60
2023/10/09 06:45:54;;;;;;;2.33;1.60;;;;;;;;;;4984302;28;20042;-61
2023/10/09 06:58:54;;;;;;;;;;;;;;;;;;4985610;28;20050;-61
2023/10/09 07:03:53;;;;;;;2.10;1.73;;;;;;;;;;4986963;28;20049;-60
2023/10/09 07:06:56;;;;;;;2.85;2.35;;;;;;;;;;4985014;28;20050;-61
2023/10/09 07:14:06;;;;;;;2.47;1.77;;;;;;;;;;4985836;28;20073;-61
2023/10/09 07:16:38;;;;;;;1.48;1.23;;;;;;;;;;4984550;28;20038;-61
2023/10/09 07:19:25;;;;;;;1.05;0.98;;;;;;;;;;4986309;28;20049;-61
2023/10/09 07:21:54;;;;;;;1.30;1.10;;;;;;;;;;4983928;28;20045;-61
2023/10/09 07:24:37;;;;;;;1.00;1.00;;;;;;;;;;4986244;28;20426;-61
2023/10/09 07:27:09;;;;;;;1.40;1.20;;;;;;;;;;4982557;28;20125;-61
2023/10/09 07:29:47;;;;;;;1.83;0.95;;;;;;;;;;4985851;28;20047;-61
2023/10/09 07:32:20;;;;;;;2.63;1.27;;;;;;;;;;4983707;28;20043;-61
2023/10/09 07:34:58;;;;;;;1.40;1.02;;;;;;;;;;4985421;28;20116;-61
2023/10/09 07:37:24;;;;;;;1.25;1.08;;;;;;;;;;4984617;28;20049;-61
2023/10/09 07:39:57;;;;;;;0.88;0.70;;;;;;;;;;4986362;28;20097;-62
2023/10/09 07:42:43;;;;;;;1.15;0.98;;;;;;;;;;4985407;28;20038;-61
2023/10/09 07:50:37;;;;;;;1.20;0.90;;;;;;;;;;4985311;28;20046;-61
2023/10/09 07:53:17;;;;;;;1.10;1.00;;;;;;;;;;4983606;28;20056;-61
2023/10/09 07:56:06;;;;;;;1.17;1.05;;;;;;;;;;4983196;28;20046;-61
2023/10/09 07:58:33;;;;;;;0.85;0.70;;;;;;;;;;4978993;28;20049;-61
2023/10/09 08:01:15;;;;;;;1.35;0.98;;;;;;;;;;4983918;28;20148;-61
2023/10/09 08:03:45;;;;;;;3.00;1.10;;;;;;;;;;4962966;28;20046;-60
2023/10/09 08:11:59;;;;;;;1.20;1.10;;;;;;;;;;4984582;28;20430;-61
2023/10/09 08:19:54;;;;;;;3.40;1.50;;;;;;;;;;4985326;28;20042;-60
2023/10/09 08:24:55;;;;;;;1.85;1.50;;;;;;;;;;4984734;28;20046;-61
2023/10/09 08:30:28;;;;;;;1.60;1.50;;;;;;;;;;4985022;28;20081;-63
2023/10/09 08:33:05;;;;;;;1.58;1.42;;;;;;;;;;4983655;28;20065;-64
2023/10/09 08:35:33;;;;;;;2.58;1.50;;;;;;;;;;4986045;28;20046;-63
2023/10/09 08:38:10;;;;;;;4.78;1.92;;;;;;;;;;4984967;28;20125;-61
2023/10/09 08:40:39;;;;;;;1.83;1.50;;;;;;;;;;4980932;28;20053;-60
2023/10/09 08:43:14;;;;;;;3.08;1.63;;;;;;;;;;4986537;28;20046;-59
2023/10/09 08:45:41;;;;;;;1.85;1.75;;;;;;;;;;4979866;28;20463;-59
2023/10/09 08:48:15;;;;;;;3.03;2.17;;;;;;;;;;4985405;28;20057;-60
2023/10/09 08:50:42;;;;;;;3.63;2.10;;;;;;;;;;4978376;28;20046;-61
2023/10/09 08:53:10;;;;;;;4.10;3.03;;;;;;;;;;4981368;28;20054;-59
2023/10/09 08:55:38;;;;;;;3.65;2.67;;;;;;;;;;4982834;28;20042;-60
2023/10/09 08:58:28;;;;;;;2.92;2.28;;;;;;;;;;4983331;28;20462;-59
2023/10/09 09:00:51;;;;;;;3.83;2.58;;;;;;;;;;4982405;28;20057;-60
2023/10/09 09:03:18;;;;;;;3.95;2.25;;;;;;;;;;4980504;28;20042;-60
2023/10/09 09:05:47;;;;;;;5.70;2.67;;;;;;;;;;4984509;28;20042;-60
2023/10/09 09:08:28;;;;;;;2.08;1.80;;;;;;;;;;4984268;28;20051;-60
2023/10/09 09:11:23;;;;;;;1.90;1.80;;;;;;;;;;4983093;28;20046;-60
2023/10/09 09:14:22;;;;;;;3.20;1.80;;;;;;;;;;4981593;28;20129;-60
2023/10/09 09:16:51;;;;;;;1.95;1.50;;;;;;;;;;4983896;28;20042;-60
2023/10/09 09:19:18;;;;;;;3.83;2.30;;;;;;;;;;4984597;28;20075;-59
2023/10/09 09:21:48;;;;;;;3.88;2.30;;;;;;;;;;4980836;28;20097;-59
2023/10/09 09:26:47;;;;;;;2.55;2.03;;;;;;;;;;4983964;28;20046;-60
2023/10/09 09:29:19;;;;;;;2.15;1.50;;;;;;;;;;4984722;28;20078;-59
2023/10/09 09:31:53;;;;;;;1.70;1.50;;;;;;;;;;4985059;28;20463;-60
2023/10/09 09:34:25;;;;;;;1.77;1.17;;;;;;;;;;4984196;28;20049;-60
2023/10/09 09:36:54;;;;;;;3.58;2.17;;;;;;;;;;4983351;28;20169;-60
2023/10/09 09:39:29;;;;;;;3.17;2.15;;;;;;;;;;4984493;28;20030;-60
2023/10/09 09:42:13;;;;;;;1.50;1.40;;;;;;;;;;4982491;28;20134;-60
2023/10/09 09:44:48;;;;;;;2.83;1.73;;;;;;;;;;4987984;28;20498;-60
2023/10/09 09:47:23;;;;;;;2.67;1.73;;;;;;;;;;4987505;28;20523;-60
2023/10/09 09:49:52;;;;;;;2.10;1.48;;;;;;;;;;4988018;28;20042;-60
2023/10/09 09:52:19;;;;;;;2.70;1.60;;;;;;;;;;4987611;28;20058;-60
2023/10/09 09:54:45;;;;;;;2.92;1.88;;;;;;;;;;4988360;28;20038;-60
2023/10/09 09:57:14;;;;;;;2.65;1.63;;;;;;;;;;4987347;28;20058;-60
2023/10/09 09:59:49;;;;;;;2.85;1.92;;;;;;;;;;4988573;28;20037;-60
2023/10/09 10:02:20;;;;;;;1.73;1.42;;;;;;;;;;4987169;28;20042;-60
2023/10/09 10:04:50;;;;;;;1.90;1.33;;;;;;;;;;4970310;28;20062;-60
2023/10/09 10:07:17;;;;;;;3.45;1.85;;;;;;;;;;4987772;28;20054;-60
2023/10/09 10:09:44;;;;;;;2.47;1.52;;;;;;;;;;4970168;28;20085;-60
2023/10/09 10:12:11;;;;;;;1.88;1.50;;;;;;;;;;4987998;28;20076;-60
2023/10/09 10:15:06;;;;;;;3.80;2.03;;;;;;;;;;4987014;28;20521;-60
2023/10/09 10:17:36;;;;;;;3.10;2.55;;;;;;;;;;4987569;28;20092;-60
2023/10/09 10:22:47;;;;;;;3.55;2.03;;;;;;;;;;4986625;28;20042;-60
2023/10/09 10:25:32;;;;;;;3.60;1.83;;;;;;;;;;4987064;28;20104;-61
2023/10/09 10:28:16;;;;;;;3.35;1.92;;;;;;;;;;4987231;28;20615;-60
2023/10/09 10:30:51;;;;;;;1.88;1.70;;;;;;;;;;4968692;28;20058;-60
2023/10/09 10:33:17;;;;;;;2.47;1.77;;;;;;;;;;4987301;28;20048;-59
2023/10/09 10:38:25;;;;;;;1.60;1.40;;;;;;;;;;4985888;28;20046;-60
2023/10/09 10:40:57;;;;;;;3.30;2.28;;;;;;;;;;4985470;28;20077;-60
2023/10/09 10:46:23;;;;;;;3.92;2.10;;;;;;;;;;4986602;28;20058;-59
2023/10/09 10:48:58;;;;;;;3.38;2.22;;;;;;;;;;4983278;28;20053;-60
2023/10/09 10:51:34;;;;;;;3.92;2.55;;;;;;;;;;4984944;28;20117;-59
2023/10/09 10:54:16;;;;;;;3.28;2.22;;;;;;;;;;4987643;28;20133;-60
2023/10/09 10:56:45;;;;;;;4.45;2.22;;;;;;;;;;4980663;28;20046;-60
2023/10/09 11:04:38;;;;;;;5.32;2.85;;;;;;;;;;4986024;28;20046;-59
2023/10/09 11:07:09;;;;;;;3.03;2.00;;;;;;;;;;4982824;28;20439;-59
2023/10/09 11:13:30;;;;;;;3.88;2.25;;;;;;;;;;4986369;28;20766;-60
2023/10/09 11:15:44;;;;;;;5.93;2.63;;;;;;;;;;4973392;28;20054;-59
2023/10/09 11:18:20;;;;;;;5.05;2.47;;;;;;;;;;4983172;28;20089;-60
2023/10/09 11:26:40;;;;;;;4.60;2.05;;;;;;;;;;4984692;28;20050;-59
2023/10/09 11:29:23;;;;;;;4.22;1.73;;;;;;;;;;4983250;28;20038;-61
2023/10/09 11:32:01;;;;;;;1.40;1.30;;;;;;;;;;4983502;28;20069;-60
2023/10/09 11:35:10;;;;;;;1.75;1.40;;;;;;;;;;4985094;28;20054;-59
2023/10/09 11:39:56;;;;;;;1.48;1.15;;;;;;;;;;4985257;28;20046;-60
2023/10/09 11:42:36;;;;;;;1.15;0.95;;;;;;;;;;4984709;28;20042;-60
2023/10/09 11:45:23;;;;;;;1.92;1.15;;;;;;;;;;4986360;28;20465;-60
2023/10/09 11:47:59;;;;;;;0.80;0.70;;;;;;;;;;4984828;28;20046;-60
2023/10/09 11:53:46;;;;;;;0.70;0.65;;;;;;;;;;4978833;28;20379;-60
2023/10/09 11:56:17;;;;;;;1.60;1.00;;;;;;;;;;4985229;28;20133;-59
2023/10/09 11:58:43;;;;;;;1.40;1.27;;;;;;;;;;4986079;28;20117;-60
2023/10/09 12:01:19;;;;;;;4.55;1.13;;;;;;;;;;4984730;28;20434;-60
2023/10/09 12:03:53;;;;;;;1.40;0.88;;;;;;;;;;4979138;28;20046;-60
2023/10/09 12:06:22;;;;;;;1.05;0.80;;;;;;;;;;4967636;28;20058;-59
2023/10/09 12:08:48;;;;;;;1.77;0.90;;;;;;;;;;4982673;28;20049;-59
2023/10/09 12:11:22;;;;;;;1.52;0.75;;;;;;;;;;4985297;28;20050;-59
2023/10/09 12:13:48;;;;;;;0.98;0.65;;;;;;;;;;4981199;28;20046;-60
2023/10/09 12:16:15;;;;;;;0.70;0.70;;;;;;;;;;4984900;28;20057;-60
2023/10/09 12:18:42;;;;;;;0.45;0.45;;;;;;;;;;4982523;28;20097;-59
2023/10/09 12:21:15;;;;;;;0.80;0.70;;;;;;;;;;4984519;28;20100;-60
2023/10/09 12:23:43;;;;;;;0.57;0.45;;;;;;;;;;4983979;28;20046;-60
2023/10/09 12:26:14;;;;;;;0.40;0.40;;;;;;;;;;4985687;28;20050;-61
2023/10/09 12:28:40;;;;;;;1.50;0.80;;;;;;;;;;4985404;28;20053;-60
2023/10/09 12:31:06;;;;;;;0.57;0.50;;;;;;;;;;4967384;28;20054;-61
2023/10/09 12:33:32;;;;;;;0.82;0.80;;;;;;;;;;4985265;28;20051;-61
2023/10/09 12:36:01;;;;;;;1.77;0.80;;;;;;;;;;4985521;28;20050;-61
2023/10/09 12:38:34;;;;;;;3.20;1.15;;;;;;;;;;4984714;28;20041;-60
2023/10/09 12:41:28;;;;;;;3.28;1.27;;;;;;;;;;4985618;28;20117;-60
2023/10/09 12:43:53;;;;;;;1.30;1.20;;;;;;;;;;4982095;28;20042;-60
2023/10/09 12:46:22;;;;;;;1.27;1.00;;;;;;;;;;4985762;28;20034;-60
2023/10/09 12:48:49;;;;;;;2.00;1.00;;;;;;;;;;4985793;28;20050;-60
2023/10/09 12:51:18;;;;;;;1.35;0.90;;;;;;;;;;4983390;28;20043;-60
2023/10/09 12:53:45;;;;;;;1.13;0.90;;;;;;;;;;4985452;28;20193;-61
2023/10/09 12:56:12;;;;;;;1.13;1.02;;;;;;;;;;4985163;28;20649;-60
2023/10/09 12:58:38;;;;;;;1.88;0.95;;;;;;;;;;4984797;28;20043;-61
2023/10/09 13:01:11;;;;;;;1.20;1.10;;;;;;;;;;4985846;28;20549;-60
2023/10/09 13:03:38;;;;;;;1.40;1.02;;;;;;;;;;4986117;28;20438;-60
2023/10/09 13:06:10;;;;;;;2.08;1.63;;;;;;;;;;4985340;28;20111;-60
2023/10/09 13:08:36;;;;;;;;;;;;;;;;;;4986060;28;20129;-60
2023/10/09 13:11:16;;;;;;;2.28;1.58;;;;;;;;;;4985373;28;20039;-60
2023/10/09 13:13:43;;;;;;;1.90;0.90;;;;;;;;;;4984577;28;20084;-61
2023/10/09 13:16:20;;;;;;;1.20;0.90;;;;;;;;;;4985363;28;20097;-60
2023/10/09 13:18:49;;;;;;;1.10;1.00;;;;;;;;;;4986951;28;20046;-61
2023/10/09 13:21:26;;;;;;;1.33;0.85;;;;;;;;;;4987916;28;20042;-61
2023/10/09 13:23:54;;;;;;;1.58;1.20;;;;;;;;;;4988893;28;20113;-60
2023/10/09 13:26:29;;;;;;;1.13;0.90;;;;;;;;;;4988247;28;20120;-61
2023/10/09 13:28:59;;;;;;;2.80;1.20;;;;;;;;;;4989042;28;20073;-60
2023/10/09 13:31:26;;;;;;;2.58;1.10;;;;;;;;;;4988461;28;20053;-61
2023/10/09 13:33:54;;;;;;;1.58;1.00;;;;;;;;;;4988081;28;20402;-60
2023/10/09 13:36:27;;;;;;;1.05;0.95;;;;;;;;;;4970960;28;20508;-60
2023/10/09 13:38:56;;;;;;;1.17;1.00;;;;;;;;;;4986038;28;20060;-60
2023/10/09 13:41:29;;;;;;;1.00;1.00;;;;;;;;;;4987729;28;20061;-61
2023/10/09 13:43:56;;;;;;;1.00;0.90;;;;;;;;;;4988847;28;20049;-61
2023/10/09 13:46:23;;;;;;;2.15;1.00;;;;;;;;;;4988105;28;20096;-61
2023/10/09 13:48:52;;;;;;;2.25;1.20;;;;;;;;;;4987577;28;20061;-61
2023/10/09 13:51:18;;;;;;;1.02;0.73;;;;;;;;;;4987141;28;20462;-61
2023/10/09 13:53:48;;;;;;;1.02;0.82;;;;;;;;;;4988260;28;20069;-60
2023/10/09 13:56:15;;;;;;;2.40;1.00;;;;;;;;;;4986195;28;20104;-61
2023/10/09 13:58:51;;;;;;;1.63;0.68;;;;;;;;;;4988016;28;20050;-60
2023/10/09 14:01:26;;;;;;;0.70;0.70;;;;;;;;;;4987372;28;20044;-60
2023/10/09 14:03:56;;;;;;;1.35;0.50;;;;;;;;;;4987614;28;20052;-61
2023/10/09 14:06:30;;;;;;;0.95;0.70;;;;;;;;;;4986637;28;20042;-60
2023/10/09 14:09:04;;;;;;;2.50;1.10;;;;;;;;;;4981986;28;20450;-61
2023/10/09 14:11:30;;;;;;;1.92;1.20;;;;;;;;;;4987550;28;20449;-61
2023/10/09 14:13:59;;;;;;;2.13;1.30;;;;;;;;;;4988308;28;20081;-60
2023/10/09 14:16:27;;;;;;;1.30;0.88;;;;;;;;;;4987028;28;20050;-60
2023/10/09 14:18:56;;;;;;;1.15;1.02;;;;;;;;;;4988470;28;20038;-61
2023/10/09 14:21:25;;;;;;;2.00;1.00;;;;;;;;;;4986701;28;20042;-61
2023/10/09 14:23:51;;;;;;;1.70;0.88;;;;;;;;;;4985882;28;20851;-61
2023/10/09 14:26:18;;;;;;;1.27;0.90;;;;;;;;;;4986513;28;20050;-61
2023/10/09 14:28:44;;;;;;;1.38;0.73;;;;;;;;;;4987697;28;20138;-61
2023/10/09 14:31:12;;;;;;;0.80;0.60;;;;;;;;;;4984977;28;20050;-60
2023/10/09 14:33:40;;;;;;;0.40;0.40;;;;;;;;;;4988079;28;20069;-60
2023/10/09 14:36:07;;;;;;;0.50;0.50;;;;;;;;;;4987365;28;20608;-60
2023/10/09 14:38:38;;;;;;;0.60;0.50;;;;;;;;;;4986825;28;20101;-60
2023/10/09 14:41:04;;;;;;;0.93;0.68;;;;;;;;;;4987804;28;20050;-61
2023/10/09 14:43:33;;;;;;;0.70;0.63;;;;;;;;;;4986472;28;20422;-61
2023/10/09 14:45:59;;;;;;;0.63;0.40;;;;;;;;;;4983931;28;20466;-61
2023/10/09 14:48:25;;;;;;;0.80;0.43;;;;;;;;;;4984216;28;20042;-60
2023/10/09 14:51:00;;;;;;;0.60;0.50;;;;;;;;;;4986480;28;20065;-60
2023/10/09 14:53:26;;;;;;;2.92;0.63;;;;;;;;;;4986663;28;20042;-61
2023/10/09 14:56:09;;;;;;;0.47;0.47;;;;;;;;;;4987359;28;20036;-60
2023/10/09 14:58:35;;;;;;;1.08;0.50;;;;;;;;;;4985505;28;20039;-61
2023/10/09 15:01:18;;;;;;;0.38;0.35;;;;;;;;;;4985862;28;20129;-61
2023/10/09 15:03:47;;;;;;;2.67;0.75;;;;;;;;;;4987024;28;20034;-61
2023/10/09 15:06:14;;;;;;;0.95;0.77;;;;;;;;;;4981087;28;20421;-61
2023/10/09 15:08:40;;;;;;;0.95;0.60;;;;;;;;;;4984086;28;20038;-61
2023/10/09 15:11:06;;;;;;;0.73;0.50;;;;;;;;;;4979057;28;20042;-60
2023/10/09 15:13:32;;;;;;;0.60;0.60;;;;;;;;;;4979932;28;20176;-61
2023/10/09 15:15:58;;;;;;;1.17;0.65;;;;;;;;;;4985878;28;20591;-62
2023/10/09 15:18:25;;;;;;;2.25;0.73;;;;;;;;;;4985001;28;20053;-61
2023/10/09 15:20:51;;;;;;;0.60;0.40;;;;;;;;;;4982712;28;20061;-60
2023/10/09 15:23:19;;;;;;;0.30;0.30;;;;;;;;;;4977284;28;20478;-61
2023/10/09 15:25:49;;;;;;;0.45;0.45;;;;;;;;;;4979154;28;20050;-61
2023/10/09 15:28:15;;;;;;;0.68;0.45;;;;;;;;;;4985215;28;20084;-61
2023/10/09 15:30:42;;;;;;;0.30;0.30;;;;;;;;;;4983004;28;20994;-60
2023/10/09 15:33:10;;;;;;;0.35;0.30;;;;;;;;;;4983314;28;20470;-61
2023/10/09 15:35:36;;;;;;;0.63;0.50;;;;;;;;;;4985046;28;20085;-60
2023/10/09 15:38:03;;;;;;;0.47;0.38;;;;;;;;;;4982765;28;20049;-60
2023/10/09 15:40:36;;;;;;;0.60;0.40;;;;;;;;;;4982813;28;20096;-60
2023/10/09 15:43:04;;;;;;;1.17;0.60;;;;;;;;;;4968431;28;20375;-61
2023/10/09 15:45:31;;;;;;;1.05;0.50;;;;;;;;;;4986874;28;20046;-61
2023/10/09 15:47:59;;;;;;;1.48;0.60;;;;;;;;;;4985477;28;20486;-59
2023/10/09 15:50:25;;;;;;;1.63;0.50;;;;;;;;;;4983618;28;20034;-61
2023/10/09 15:52:55;;;;;;;1.65;0.55;;;;;;;;;;4985946;28;20034;-61
2023/10/09 15:55:24;;;;;;;0.60;0.50;;;;;;;;;;4983993;28;20046;-60
2023/10/09 15:57:52;;;;;;;0.50;0.45;;;;;;;;;;4985904;28;20042;-61
2023/10/09 16:00:18;;;;;;;0.93;0.50;;;;;;;;;;4984424;28;20542;-61
2023/10/09 16:02:45;;;;;;;0.88;0.60;;;;;;;;;;4980872;28;20046;-60
2023/10/09 16:05:11;;;;;;;1.63;0.70;;;;;;;;;;4985671;28;20050;-60
2023/10/09 16:07:40;;;;;;;1.40;0.70;;;;;;;;;;4983177;28;20034;-60
2023/10/09 16:10:08;;;;;;;0.75;0.40;;;;;;;;;;4976526;28;20527;-60
2023/10/09 16:12:38;;;;;;;0.95;0.55;;;;;;;;;;4981198;28;20054;-61
2023/10/09 16:15:05;;;;;;;0.70;0.52;;;;;;;;;;4982652;28;20931;-60
2023/10/09 16:17:34;;;;;;;0.40;0.30;;;;;;;;;;4983118;28;20061;-61
2023/10/09 16:20:01;;;;;;;1.60;0.75;;;;;;;;;;4982651;28;20050;-61
2023/10/09 16:22:28;;;;;;;0.50;0.40;;;;;;;;;;4983682;28;20043;-60
2023/10/09 16:24:55;;;;;;;1.23;0.60;;;;;;;;;;4984558;28;20085;-61
2023/10/09 16:27:23;;;;;;;0.45;0.32;;;;;;;;;;4980650;28;20100;-61
2023/10/09 16:29:52;;;;;;;0.30;0.30;;;;;;;;;;4984127;28;20050;-61
2023/10/09 16:32:23;;;;;;;0.50;0.40;;;;;;;;;;4985391;28;20050;-59
2023/10/09 16:34:49;;;;;;;0.63;0.38;;;;;;;;;;4984666;28;20042;-59
2023/10/09 16:37:17;;;;;;;1.40;0.70;;;;;;;;;;4985181;28;20435;-60
2023/10/09 16:39:44;;;;;;;1.63;0.40;;;;;;;;;;4985531;28;20049;-60
2023/10/09 16:42:10;;;;;;;0.40;0.40;;;;;;;;;;4986383;28;20042;-60
2023/10/09 16:44:37;;;;;;;2.05;0.60;;;;;;;;;;4984427;28;20038;-60
2023/10/09 16:47:03;;;;;;;2.47;0.60;;;;;;;;;;4984020;28;20051;-60
2023/10/09 16:49:30;;;;;;;1.65;0.50;;;;;;;;;;4979811;28;20047;-60
2023/10/09 16:51:56;;;;;;;0.20;0.20;;;;;;;;;;4979606;28;20047;-60
2023/10/09 16:54:23;;;;;;;0.28;0.28;;;;;;;;;;4987329;28;20046;-60
2023/10/09 16:56:51;;;;;;;0.25;0.25;;;;;;;;;;4989267;28;20490;-63
2023/10/09 16:59:18;;;;;;;0.88;0.30;;;;;;;;;;4986596;28;20053;-61
2023/10/09 17:01:45;;;;;;;0.47;0.47;;;;;;;;;;4987072;28;20609;-59
2023/10/09 17:04:17;;;;;;;0.40;0.40;;;;;;;;;;4987186;28;20043;-60
2023/10/09 17:06:51;;;;;;;0.20;0.15;;;;;;;;;;4986036;28;20101;-60
2023/10/09 17:09:20;;;;;;;0.40;0.40;;;;;;;;;;4987714;28;20100;-60
2023/10/09 17:11:51;;;;;;;1.08;0.50;;;;;;;;;;4987493;28;20042;-60
2023/10/09 17:14:20;;;;;;;0.70;0.22;;;;;;;;;;4988924;28;20085;-60
2023/10/09 17:16:47;;;;;;;0.20;0.10;;;;;;;;;;4986666;28;20050;-60
2023/10/09 17:19:14;;;;;;;0.40;0.32;;;;;;;;;;4971451;28;20769;-60
2023/10/09 17:21:40;;;;;;;0.45;0.22;;;;;;;;;;4990299;28;20080;-60
2023/10/09 17:24:10;;;;;;;0.40;0.10;;;;;;;;;;4989763;28;20501;-60
2023/10/09 17:26:41;;;;;;;0.40;0.40;;;;;;;;;;4968966;28;20054;-61
2023/10/09 17:29:10;;;;;;;0.57;0.38;;;;;;;;;;4955921;28;20045;-60
2023/10/09 17:31:39;;;;;;;1.50;0.68;;;;;;;;;;4987695;28;20058;-60
2023/10/09 17:34:07;;;;;;;1.08;0.70;;;;;;;;;;4978345;28;20049;-60
2023/10/09 17:36:33;;;;;;;0.77;0.50;;;;;;;;;;4972495;28;20099;-60
2023/10/09 17:39:04;;;;;;;0.75;0.45;;;;;;;;;;4975453;28;20055;-61